Sea Lion — WDF6072 — position and weather

sailwx.info

Track history (hours):
 
Tides and Currents Weather Stations Pressure Air Temp Water Temp Dewpoint Dewpoint Depression Visibility Wind Speed Wind Dir Waves Ship Positions

Sea Lion

Owner: Sea Lion Holdings, LLC, Sausalito, CA. More information available from US FCC via Universal Licensing System and Coast Guard Vessel Documentation Center.

Last reported at 2015-Jun-30 11:27 UTC. Time now 2015-Jun-30 14:29 UTC.
Position N 47°40' W 122°23'.

; draft 3 m.

Type: Pleasure craft. MMSI: 367470340.

Date/timePositionNaut miles runAvg speedWind from/ knotsBaromVisibWave heightAir tempDewpointWater temp
2015-Jun-30 11:27N 47°40' W 122°23'0 0.0
2015-Jun-30 10:27N 47°40' W 122°23'0 0.0
2015-Jun-30 09:12N 47°40' W 122°23'0 0.0
2015-Jun-30 09:12N 47°40' W 122°23'0 0.0
2015-Jun-30 08:27N 47°40' W 122°23'0 0.0
2015-Jun-30 07:24N 47°40' W 122°23'0 0.0
2015-Jun-30 06:24N 47°40' W 122°23'0 0.0
2015-Jun-30 05:33N 47°40' W 122°23'0 0.0
2015-Jun-30 04:21N 47°40' W 122°23'0 0.0
2015-Jun-30 04:21N 47°40' W 122°23'0 0.0
2015-Jun-30 03:18N 47°40' W 122°23'0 0.0
2015-Jun-30 03:15N 47°40' W 122°23'0 0.0
2015-Jun-30 02:30N 47°40' W 122°23'0 0.0
2015-Jun-30 01:30N 47°40' W 122°23'0 0.0
2015-Jun-30 01:09N 47°40' W 122°23'0 0.0
2015-Jun-30 00:27N 47°40' W 122°23'0 0.0
2015-Jun-29 23:36N 47°40' W 122°23'0 0.0
2015-Jun-29 23:30N 47°40' W 122°23'0 0.0
2015-Jun-29 23:30N 47°40' W 122°23'0 0.0
2015-Jun-29 22:12N 47°40' W 122°23'0 0.0
2015-Jun-29 22:03N 47°40' W 122°23'0 0.0
2015-Jun-29 21:27N 47°40' W 122°23'0 0.0
2015-Jun-29 21:27N 47°40' W 122°23'0 0.0
2015-Jun-29 20:24N 47°40' W 122°23'0 0.0
2015-Jun-29 19:51N 47°40' W 122°23'0 0.0
2015-Jun-29 19:33N 47°40' W 122°23'0 0.0
2015-Jun-29 19:21N 47°40' W 122°23'0 0.0
2015-Jun-29 18:33N 47°40' W 122°23'0 0.0
2015-Jun-29 18:21N 47°40' W 122°23'0 0.0
2015-Jun-29 17:21N 47°40' W 122°23'0 0.0
2015-Jun-29 16:33N 47°40' W 122°23'0 0.0
2015-Jun-29 16:21N 47°40' W 122°23'0 0.0
2015-Jun-29 15:33N 47°40' W 122°23'0 0.0
2015-Jun-29 15:21N 47°40' W 122°23'0 0.0
2015-Jun-29 14:33N 47°40' W 122°23'0 0.0
2015-Jun-29 13:33N 47°40' W 122°23'0 0.0
2015-Jun-29 12:21N 47°40' W 122°23'0 0.0
2015-Jun-29 12:21N 47°40' W 122°23'0 0.1
2015-Jun-29 11:33N 47°40' W 122°23'0 0.8
2015-Jun-29 11:30N 47°40' W 122°23'0 0.0
2015-Jun-29 10:30N 47°40' W 122°23'0 0.0
2015-Jun-29 09:30N 47°40' W 122°23'0 0.0
2015-Jun-29 09:30N 47°40' W 122°23'0 0.0
2015-Jun-29 08:27N 47°40' W 122°23'0 0.0
2015-Jun-29 01:24N 47°40' W 122°23'0 0.0
2015-Jun-29 00:33N 47°40' W 122°23'0 0.0
2015-Jun-28 04:45N 47°40' W 122°23'0 0.0
2015-Jun-28 04:33N 47°40' W 122°23'0 0.0
2015-Jun-28 04:30N 47°40' W 122°23'0 0.0
2015-Jun-28 03:09N 47°40' W 122°23'0 0.0
2015-Jun-28 03:09N 47°40' W 122°23'0 0.0
2015-Jun-28 02:27N 47°40' W 122°23'0 0.0
2015-Jun-28 01:33N 47°40' W 122°23'0 0.0
2015-Jun-28 00:31N 47°40' W 122°23'0 0.0
2015-Jun-28 00:18N 47°40' W 122°23'0 0.0
2015-Jun-27 23:12N 47°40' W 122°23'0 0.0
2015-Jun-27 22:25N 47°40' W 122°23'0 0.0
2015-Jun-27 21:42N 47°40' W 122°23'0 0.0
2015-Jun-27 21:33N 47°40' W 122°23'0 0.0
2015-Jun-27 21:33N 47°40' W 122°23'0 0.0
2015-Jun-27 20:33N 47°40' W 122°23'0 0.0
2015-Jun-27 19:25N 47°40' W 122°23'0 0.1
2015-Jun-27 19:21N 47°40' W 122°23'1 1.0
2015-Jun-27 18:30N 47°40' W 122°24'9 9.2
2015-Jun-27 17:33N 47°49' W 122°26'9 8.9
2015-Jun-27 16:33N 47°56' W 122°33'13 1.5
2015-Jun-27 07:32N 48°06' W 122°47'0 0.0
2015-Jun-27 05:30N 48°06' W 122°47'0 0.0
2015-Jun-27 01:22N 48°06' W 122°47'13 6.3
2015-Jun-26 23:15N 48°19' W 122°54'6 9.2
2015-Jun-26 22:33N 48°25' W 122°57'8 7.8
2015-Jun-26 21:33N 48°33' W 122°60'1 0.8
2015-Jun-26 20:33N 48°32' W 123°01'0 0.0
2015-Jun-26 19:33N 48°32' W 123°01'2 3.9
2015-Jun-26 19:03N 48°34' W 123°02'5 9.4
2015-Jun-26 18:33N 48°38' W 123°06'2 2.7
2015-Jun-26 17:47N 48°37' W 123°09'0 0.0
2015-Jun-26 17:33N 48°37' W 123°09'0 0.0
2015-Jun-26 16:47N 48°37' W 123°09'0 0.0
2015-Jun-26 16:33N 48°37' W 123°09'0 0.0
2015-Jun-26 15:33N 48°37' W 123°09'0 0.0
2015-Jun-26 14:36N 48°37' W 123°09'0 0.0
2015-Jun-26 14:33N 48°37' W 123°09'0 0.0
2015-Jun-26 13:33N 48°37' W 123°09'0 0.0
2015-Jun-26 12:33N 48°37' W 123°09'0 0.0
2015-Jun-26 11:33N 48°37' W 123°09'0 0.0
2015-Jun-26 10:36N 48°37' W 123°09'0 0.0
2015-Jun-26 10:33N 48°37' W 123°09'0 0.0
2015-Jun-26 09:33N 48°37' W 123°09'0 0.0
2015-Jun-26 08:50N 48°37' W 123°09'0 0.0
2015-Jun-26 08:34N 48°37' W 123°09'0 0.0
2015-Jun-26 07:33N 48°37' W 123°09'0 0.0
2015-Jun-26 06:49N 48°37' W 123°09'0 0.0
2015-Jun-26 06:33N 48°37' W 123°09'0 0.0
2015-Jun-26 06:23N 48°37' W 123°09'0 0.0
2015-Jun-26 05:33N 48°37' W 123°09'0 0.0
2015-Jun-26 04:34N 48°37' W 123°09'0 0.0
2015-Jun-26 03:33N 48°37' W 123°09'0 0.0
2015-Jun-26 02:33N 48°37' W 123°09'0 0.0
2015-Jun-26 01:59N 48°37' W 123°09'0 0.0
2015-Jun-26 01:33N 48°37' W 123°09'0 0.0
2015-Jun-26 00:33N 48°37' W 123°09'0 0.0
2015-Jun-26 00:18N 48°37' W 123°09'0 0.0
2015-Jun-25 23:33N 48°37' W 123°09'0 0.0
2015-Jun-25 23:27N 48°37' W 123°09'0 0.0
2015-Jun-25 22:33N 48°37' W 123°09'0 0.4
2015-Jun-25 21:33N 48°37' W 123°10'4 4.1
2015-Jun-25 20:33N 48°33' W 123°13'7 7.3
2015-Jun-25 19:33N 48°26' W 123°13'7 7.2
2015-Jun-25 18:33N 48°25' W 123°24'1 1.2
2015-Jun-25 17:33N 48°25' W 123°22'0 0.0
2015-Jun-25 16:30N 48°25' W 123°22'0 0.0
2015-Jun-25 15:33N 48°25' W 123°22'0 0.0
2015-Jun-25 14:30N 48°25' W 123°22'0 0.0
2015-Jun-25 13:33N 48°25' W 123°22'0 0.0
2015-Jun-25 12:33N 48°25' W 123°22'0 0.0
2015-Jun-25 11:30N 48°25' W 123°22'0 0.0
2015-Jun-25 10:27N 48°25' W 123°22'0 0.0
2015-Jun-25 09:33N 48°25' W 123°22'0 0.0
2015-Jun-25 08:33N 48°25' W 123°22'0 0.0
2015-Jun-25 07:33N 48°25' W 123°22'0 0.0
2015-Jun-25 06:27N 48°25' W 123°22'0 0.0
2015-Jun-25 05:33N 48°25' W 123°22'0 0.0
2015-Jun-25 04:33N 48°25' W 123°22'0 0.0
2015-Jun-25 03:33N 48°25' W 123°22'0 0.0
2015-Jun-25 02:33N 48°25' W 123°22'2 2.1
2015-Jun-25 01:34N 48°24' W 123°21'2 2.1
2015-Jun-25 00:33N 48°22' W 123°19'36 8.8
2015-Jun-24 20:31N 47°59' W 122°37'5 9.6
2015-Jun-24 20:00N 47°56' W 122°32'4 9.7
2015-Jun-24 19:34N 47°52' W 122°30'1 9.8
2015-Jun-24 19:30N 47°51' W 122°29'8 9.0
2015-Jun-24 18:34N 47°43' W 122°26'1 9.2
2015-Jun-24 18:30N 47°43' W 122°25'3 3.1
2015-Jun-24 17:33N 47°40' W 122°24'0 2.0
2015-Jun-24 17:29N 47°40' W 122°24'0 0.4
2015-Jun-24 16:30N 47°40' W 122°23'0 0.0
2015-Jun-24 16:27N 47°40' W 122°23'0 0.0
2015-Jun-24 15:33N 47°40' W 122°23'0 0.0
2015-Jun-24 15:31N 47°40' W 122°23'0 0.0
2015-Jun-24 14:32N 47°40' W 122°23'0 0.0
2015-Jun-24 14:31N 47°40' W 122°23'0 0.0
2015-Jun-24 13:34N 47°40' W 122°23'0 0.0
2015-Jun-24 13:30N 47°40' W 122°23'0 0.0
2015-Jun-24 12:33N 47°40' W 122°23'0 0.0
2015-Jun-24 12:30N 47°40' W 122°23'0 0.0
2015-Jun-24 11:30N 47°40' W 122°23'0 0.0
2015-Jun-24 11:29N 47°40' W 122°23'0 0.0
2015-Jun-24 10:34N 47°40' W 122°23'0 0.0
2015-Jun-24 10:29N 47°40' W 122°23'0 0.0
2015-Jun-24 09:34N 47°40' W 122°23'0 0.0
2015-Jun-24 09:33N 47°40' W 122°23'0 0.0
2015-Jun-24 08:32N 47°40' W 122°23'0 0.0
2015-Jun-24 08:32N 47°40' W 122°23'0 0.0
2015-Jun-24 07:33N 47°40' W 122°23'0 0.0
2015-Jun-24 07:32N 47°40' W 122°23'0 0.0
2015-Jun-24 06:33N 47°40' W 122°23'0 0.1
2015-Jun-24 06:30N 47°40' W 122°23'0 0.0
2015-Jun-24 05:39N 47°40' W 122°23'0 0.0
2015-Jun-24 05:33N 47°40' W 122°23'0 0.0
2015-Jun-24 04:26N 47°40' W 122°23'0 0.0
2015-Jun-24 04:23N 47°40' W 122°23'0 0.0
2015-Jun-24 03:28N 47°40' W 122°23'0 0.0
2015-Jun-24 03:27N 47°40' W 122°23'0 0.0
2015-Jun-24 02:32N 47°40' W 122°23'0 0.0
2015-Jun-24 02:32N 47°40' W 122°23'0 0.0
2015-Jun-24 01:33N 47°40' W 122°23'0 0.0
2015-Jun-24 01:32N 47°40' W 122°23'0 0.0
2015-Jun-24 00:33N 47°40' W 122°23'0 0.0
2015-Jun-24 00:31N 47°40' W 122°23'0 0.0
2015-Jun-23 23:33N 47°40' W 122°23'0 0.0
2015-Jun-23 23:30N 47°40' W 122°23'0 0.0
2015-Jun-23 22:33N 47°40' W 122°23'0 0.0
2015-Jun-23 22:30N 47°40' W 122°23'0 0.0
2015-Jun-23 21:33N 47°40' W 122°23'0 0.1
2015-Jun-23 21:30N 47°40' W 122°23'0 0.0
2015-Jun-23 20:33N 47°40' W 122°23'0 0.0
2015-Jun-23 20:30N 47°40' W 122°23'0 0.0
2015-Jun-23 19:33N 47°40' W 122°23'0 0.0
2015-Jun-23 19:30N 47°40' W 122°23'0 0.0
2015-Jun-23 19:06N 47°40' W 122°23'0 0.0
2015-Jun-23 19:05N 47°40' W 122°23'0 0.0
2015-Jun-22 17:33N 47°40' W 122°23'0 0.0
2015-Jun-22 07:32N 47°40' W 122°23'0 0.0
2015-Jun-22 06:29N 47°40' W 122°23'0 0.0
2015-Jun-22 05:34N 47°40' W 122°23'0 0.0
2015-Jun-22 04:04N 47°40' W 122°23'0 0.0
2015-Jun-22 02:19N 47°40' W 122°23'0 0.0
2015-Jun-21 23:08N 47°40' W 122°23'0 0.0
2015-Jun-21 22:30N 47°40' W 122°23'0 0.0
2015-Jun-21 20:13N 47°40' W 122°23'0 0.0
2015-Jun-21 20:09N 47°40' W 122°23'0 0.0
2015-Jun-21 19:33N 47°40' W 122°23'0 0.0
2015-Jun-21 19:29N 47°40' W 122°23'0 0.0
2015-Jun-21 18:34N 47°40' W 122°23'0 0.0
2015-Jun-21 18:33N 47°40' W 122°23'0 0.0
2015-Jun-21 17:33N 47°40' W 122°23'0 0.0
2015-Jun-21 17:32N 47°40' W 122°23'0 0.0
2015-Jun-21 16:33N 47°40' W 122°23'0 0.0
2015-Jun-21 16:32N 47°40' W 122°23'0 0.0
2015-Jun-21 15:34N 47°40' W 122°23'0 0.0
2015-Jun-21 15:32N 47°40' W 122°23'0 0.0
2015-Jun-21 14:33N 47°40' W 122°23'0 0.0
2015-Jun-21 14:30N 47°40' W 122°23'0 0.0
2015-Jun-21 13:33N 47°40' W 122°23'0 0.0
2015-Jun-21 13:30N 47°40' W 122°23'0 0.0
2015-Jun-21 12:33N 47°40' W 122°23'0 0.1
2015-Jun-21 12:30N 47°40' W 122°23'0 0.0
2015-Jun-21 11:25N 47°40' W 122°23'0 0.0
2015-Jun-21 11:23N 47°40' W 122°23'0 0.0
2015-Jun-21 10:34N 47°40' W 122°23'0 0.0
2015-Jun-21 10:31N 47°40' W 122°23'0 0.0
2015-Jun-21 09:31N 47°40' W 122°23'0 0.0
2015-Jun-21 09:30N 47°40' W 122°23'0 0.0
2015-Jun-21 08:34N 47°40' W 122°23'0 0.0
2015-Jun-21 08:30N 47°40' W 122°23'0 0.0
2015-Jun-21 07:34N 47°40' W 122°23'0 0.0
2015-Jun-21 07:13N 47°40' W 122°23'0 0.0
2015-Jun-21 06:34N 47°40' W 122°23'0 0.0
2015-Jun-21 06:33N 47°40' W 122°23'0 0.0
2015-Jun-21 06:02N 47°40' W 122°23'0 0.0
2015-Jun-21 05:34N 47°40' W 122°23'0 0.0
2015-Jun-21 04:31N 47°40' W 122°23'0 0.0
2015-Jun-21 04:01N 47°40' W 122°23'0 0.0
2015-Jun-21 03:27N 47°40' W 122°23'0 0.0
2015-Jun-21 03:15N 47°40' W 122°23'0 0.0
2015-Jun-21 02:34N 47°40' W 122°23'0 0.1
2015-Jun-21 02:29N 47°40' W 122°23'0 0.0
2015-Jun-21 01:31N 47°40' W 122°23'0 0.0
2015-Jun-21 01:27N 47°40' W 122°23'0 0.0
2015-Jun-21 00:34N 47°40' W 122°23'0 0.0
2015-Jun-21 00:32N 47°40' W 122°23'0 0.0
2015-Jun-20 23:33N 47°40' W 122°23'0 0.2
2015-Jun-20 23:31N 47°40' W 122°23'0 0.0
2015-Jun-20 22:34N 47°40' W 122°23'0 0.0
2015-Jun-20 22:30N 47°40' W 122°23'0 0.0
2015-Jun-20 21:30N 47°40' W 122°23'0 0.0
2015-Jun-20 21:24N 47°40' W 122°23'0 0.0
2015-Jun-20 20:32N 47°40' W 122°23'0 0.0
2015-Jun-20 20:08N 47°40' W 122°23'0 0.0
2015-Jun-20 19:32N 47°40' W 122°23'0 0.0
2015-Jun-20 19:28N 47°40' W 122°23'0 0.0
2015-Jun-20 18:33N 47°40' W 122°23'0 0.0
2015-Jun-20 18:32N 47°40' W 122°23'0 0.0
2015-Jun-20 17:33N 47°40' W 122°23'0 0.0
2015-Jun-20 17:32N 47°40' W 122°23'0 0.0
2015-Jun-20 16:34N 47°40' W 122°23'0 0.2
2015-Jun-20 16:31N 47°40' W 122°23'0 0.0
2015-Jun-20 15:34N 47°40' W 122°23'0 0.0
2015-Jun-20 15:31N 47°40' W 122°23'0 0.0
2015-Jun-20 14:34N 47°40' W 122°23'0 0.0
2015-Jun-20 14:34N 47°40' W 122°23'0 0.0
2015-Jun-20 13:34N 47°40' W 122°23'0 0.0
2015-Jun-20 13:29N 47°40' W 122°23'0 0.0
2015-Jun-20 12:33N 47°40' W 122°23'0 0.0
2015-Jun-20 12:33N 47°40' W 122°23'0 0.0
2015-Jun-20 11:33N 47°40' W 122°23'0 0.3
2015-Jun-20 11:32N 47°40' W 122°23'  
Track history (hours):
 
Tides and Currents Weather Stations Pressure Air Temp Water Temp Dewpoint Dewpoint Depression Visibility Wind Speed Wind Dir Waves Ship Positions

Sea Lion

Owner: Sea Lion Holdings, LLC, Sausalito, CA. More information available from US FCC via Universal Licensing System and Coast Guard Vessel Documentation Center.

Last reported at 2015-Jun-30 11:27 UTC. Time now 2015-Jun-30 14:29 UTC.
Position N 47°40' W 122°23'.

; draft 3 m.

Type: Pleasure craft. MMSI: 367470340.

Date/timePositionNaut miles runAvg speedWind from/ knotsBaromVisibWave heightAir tempDewpointWater temp
2015-Jun-30 11:27N 47°40' W 122°23'0 0.0
2015-Jun-30 10:27N 47°40' W 122°23'0 0.0
2015-Jun-30 09:12N 47°40' W 122°23'0 0.0
2015-Jun-30 09:12N 47°40' W 122°23'0 0.0
2015-Jun-30 08:27N 47°40' W 122°23'0 0.0
2015-Jun-30 07:24N 47°40' W 122°23'0 0.0
2015-Jun-30 06:24N 47°40' W 122°23'0 0.0
2015-Jun-30 05:33N 47°40' W 122°23'0 0.0
2015-Jun-30 04:21N 47°40' W 122°23'0 0.0
2015-Jun-30 04:21N 47°40' W 122°23'0 0.0
2015-Jun-30 03:18N 47°40' W 122°23'0 0.0
2015-Jun-30 03:15N 47°40' W 122°23'0 0.0
2015-Jun-30 02:30N 47°40' W 122°23'0 0.0
2015-Jun-30 01:30N 47°40' W 122°23'0 0.0
2015-Jun-30 01:09N 47°40' W 122°23'0 0.0
2015-Jun-30 00:27N 47°40' W 122°23'0 0.0
2015-Jun-29 23:36N 47°40' W 122°23'0 0.0
2015-Jun-29 23:30N 47°40' W 122°23'0 0.0
2015-Jun-29 23:30N 47°40' W 122°23'0 0.0
2015-Jun-29 22:12N 47°40' W 122°23'0 0.0
2015-Jun-29 22:03N 47°40' W 122°23'0 0.0
2015-Jun-29 21:27N 47°40' W 122°23'0 0.0
2015-Jun-29 21:27N 47°40' W 122°23'0 0.0
2015-Jun-29 20:24N 47°40' W 122°23'0 0.0
2015-Jun-29 19:51N 47°40' W 122°23'0 0.0
2015-Jun-29 19:33N 47°40' W 122°23'0 0.0
2015-Jun-29 19:21N 47°40' W 122°23'0 0.0
2015-Jun-29 18:33N 47°40' W 122°23'0 0.0
2015-Jun-29 18:21N 47°40' W 122°23'0 0.0
2015-Jun-29 17:21N 47°40' W 122°23'0 0.0
2015-Jun-29 16:33N 47°40' W 122°23'0 0.0
2015-Jun-29 16:21N 47°40' W 122°23'0 0.0
2015-Jun-29 15:33N 47°40' W 122°23'0 0.0
2015-Jun-29 15:21N 47°40' W 122°23'0 0.0
2015-Jun-29 14:33N 47°40' W 122°23'0 0.0
2015-Jun-29 13:33N 47°40' W 122°23'0 0.0
2015-Jun-29 12:21N 47°40' W 122°23'0 0.0
2015-Jun-29 12:21N 47°40' W 122°23'0 0.1
2015-Jun-29 11:33N 47°40' W 122°23'0 0.8
2015-Jun-29 11:30N 47°40' W 122°23'0 0.0
2015-Jun-29 10:30N 47°40' W 122°23'0 0.0
2015-Jun-29 09:30N 47°40' W 122°23'0 0.0
2015-Jun-29 09:30N 47°40' W 122°23'0 0.0
2015-Jun-29 08:27N 47°40' W 122°23'0 0.0
2015-Jun-29 01:24N 47°40' W 122°23'0 0.0
2015-Jun-29 00:33N 47°40' W 122°23'0 0.0
2015-Jun-28 04:45N 47°40' W 122°23'0 0.0
2015-Jun-28 04:33N 47°40' W 122°23'0 0.0
2015-Jun-28 04:30N 47°40' W 122°23'0 0.0
2015-Jun-28 03:09N 47°40' W 122°23'0 0.0
2015-Jun-28 03:09N 47°40' W 122°23'0 0.0
2015-Jun-28 02:27N 47°40' W 122°23'0 0.0
2015-Jun-28 01:33N 47°40' W 122°23'0 0.0
2015-Jun-28 00:31N 47°40' W 122°23'0 0.0
2015-Jun-28 00:18N 47°40' W 122°23'0 0.0
2015-Jun-27 23:12N 47°40' W 122°23'0 0.0
2015-Jun-27 22:25N 47°40' W 122°23'0 0.0
2015-Jun-27 21:42N 47°40' W 122°23'0 0.0
2015-Jun-27 21:33N 47°40' W 122°23'0 0.0
2015-Jun-27 21:33N 47°40' W 122°23'0 0.0
2015-Jun-27 20:33N 47°40' W 122°23'0 0.0
2015-Jun-27 19:25N 47°40' W 122°23'0 0.1
2015-Jun-27 19:21N 47°40' W 122°23'1 1.0
2015-Jun-27 18:30N 47°40' W 122°24'9 9.2
2015-Jun-27 17:33N 47°49' W 122°26'9 8.9
2015-Jun-27 16:33N 47°56' W 122°33'13 1.5
2015-Jun-27 07:32N 48°06' W 122°47'0 0.0
2015-Jun-27 05:30N 48°06' W 122°47'0 0.0
2015-Jun-27 01:22N 48°06' W 122°47'13 6.3
2015-Jun-26 23:15N 48°19' W 122°54'6 9.2
2015-Jun-26 22:33N 48°25' W 122°57'8 7.8
2015-Jun-26 21:33N 48°33' W 122°60'1 0.8
2015-Jun-26 20:33N 48°32' W 123°01'0 0.0
2015-Jun-26 19:33N 48°32' W 123°01'2 3.9
2015-Jun-26 19:03N 48°34' W 123°02'5 9.4
2015-Jun-26 18:33N 48°38' W 123°06'2 2.7
2015-Jun-26 17:47N 48°37' W 123°09'0 0.0
2015-Jun-26 17:33N 48°37' W 123°09'0 0.0
2015-Jun-26 16:47N 48°37' W 123°09'0 0.0
2015-Jun-26 16:33N 48°37' W 123°09'0 0.0
2015-Jun-26 15:33N 48°37' W 123°09'0 0.0
2015-Jun-26 14:36N 48°37' W 123°09'0 0.0
2015-Jun-26 14:33N 48°37' W 123°09'0 0.0
2015-Jun-26 13:33N 48°37' W 123°09'0 0.0
2015-Jun-26 12:33N 48°37' W 123°09'0 0.0
2015-Jun-26 11:33N 48°37' W 123°09'0 0.0
2015-Jun-26 10:36N 48°37' W 123°09'0 0.0
2015-Jun-26 10:33N 48°37' W 123°09'0 0.0
2015-Jun-26 09:33N 48°37' W 123°09'0 0.0
2015-Jun-26 08:50N 48°37' W 123°09'0 0.0
2015-Jun-26 08:34N 48°37' W 123°09'0 0.0
2015-Jun-26 07:33N 48°37' W 123°09'0 0.0
2015-Jun-26 06:49N 48°37' W 123°09'0 0.0
2015-Jun-26 06:33N 48°37' W 123°09'0 0.0
2015-Jun-26 06:23N 48°37' W 123°09'0 0.0
2015-Jun-26 05:33N 48°37' W 123°09'0 0.0
2015-Jun-26 04:34N 48°37' W 123°09'0 0.0
2015-Jun-26 03:33N 48°37' W 123°09'0 0.0
2015-Jun-26 02:33N 48°37' W 123°09'0 0.0
2015-Jun-26 01:59N 48°37' W 123°09'0 0.0
2015-Jun-26 01:33N 48°37' W 123°09'0 0.0
2015-Jun-26 00:33N 48°37' W 123°09'0 0.0
2015-Jun-26 00:18N 48°37' W 123°09'0 0.0
2015-Jun-25 23:33N 48°37' W 123°09'0 0.0
2015-Jun-25 23:27N 48°37' W 123°09'0 0.0
2015-Jun-25 22:33N 48°37' W 123°09'0 0.4
2015-Jun-25 21:33N 48°37' W 123°10'4 4.1
2015-Jun-25 20:33N 48°33' W 123°13'7 7.3
2015-Jun-25 19:33N 48°26' W 123°13'7 7.2
2015-Jun-25 18:33N 48°25' W 123°24'1 1.2
2015-Jun-25 17:33N 48°25' W 123°22'0 0.0
2015-Jun-25 16:30N 48°25' W 123°22'0 0.0
2015-Jun-25 15:33N 48°25' W 123°22'0 0.0
2015-Jun-25 14:30N 48°25' W 123°22'0 0.0
2015-Jun-25 13:33N 48°25' W 123°22'0 0.0
2015-Jun-25 12:33N 48°25' W 123°22'0 0.0
2015-Jun-25 11:30N 48°25' W 123°22'0 0.0
2015-Jun-25 10:27N 48°25' W 123°22'0 0.0
2015-Jun-25 09:33N 48°25' W 123°22'0 0.0
2015-Jun-25 08:33N 48°25' W 123°22'0 0.0
2015-Jun-25 07:33N 48°25' W 123°22'0 0.0
2015-Jun-25 06:27N 48°25' W 123°22'0 0.0
2015-Jun-25 05:33N 48°25' W 123°22'0 0.0
2015-Jun-25 04:33N 48°25' W 123°22'0 0.0
2015-Jun-25 03:33N 48°25' W 123°22'0 0.0
2015-Jun-25 02:33N 48°25' W 123°22'2 2.1
2015-Jun-25 01:34N 48°24' W 123°21'2 2.1
2015-Jun-25 00:33N 48°22' W 123°19'36 8.8
2015-Jun-24 20:31N 47°59' W 122°37'5 9.6
2015-Jun-24 20:00N 47°56' W 122°32'4 9.7
2015-Jun-24 19:34N 47°52' W 122°30'1 9.8
2015-Jun-24 19:30N 47°51' W 122°29'8 9.0
2015-Jun-24 18:34N 47°43' W 122°26'1 9.2
2015-Jun-24 18:30N 47°43' W 122°25'3 3.1
2015-Jun-24 17:33N 47°40' W 122°24'0 2.0
2015-Jun-24 17:29N 47°40' W 122°24'0 0.4
2015-Jun-24 16:30N 47°40' W 122°23'0 0.0
2015-Jun-24 16:27N 47°40' W 122°23'0 0.0
2015-Jun-24 15:33N 47°40' W 122°23'0 0.0
2015-Jun-24 15:31N 47°40' W 122°23'0 0.0
2015-Jun-24 14:32N 47°40' W 122°23'0 0.0
2015-Jun-24 14:31N 47°40' W 122°23'0 0.0
2015-Jun-24 13:34N 47°40' W 122°23'0 0.0
2015-Jun-24 13:30N 47°40' W 122°23'0 0.0
2015-Jun-24 12:33N 47°40' W 122°23'0 0.0
2015-Jun-24 12:30N 47°40' W 122°23'0 0.0
2015-Jun-24 11:30N 47°40' W 122°23'0 0.0
2015-Jun-24 11:29N 47°40' W 122°23'0 0.0
2015-Jun-24 10:34N 47°40' W 122°23'0 0.0
2015-Jun-24 10:29N 47°40' W 122°23'0 0.0
2015-Jun-24 09:34N 47°40' W 122°23'0 0.0
2015-Jun-24 09:33N 47°40' W 122°23'0 0.0
2015-Jun-24 08:32N 47°40' W 122°23'0 0.0
2015-Jun-24 08:32N 47°40' W 122°23'0 0.0
2015-Jun-24 07:33N 47°40' W 122°23'0 0.0
2015-Jun-24 07:32N 47°40' W 122°23'0 0.0
2015-Jun-24 06:33N 47°40' W 122°23'0 0.1
2015-Jun-24 06:30N 47°40' W 122°23'0 0.0
2015-Jun-24 05:39N 47°40' W 122°23'0 0.0
2015-Jun-24 05:33N 47°40' W 122°23'0 0.0
2015-Jun-24 04:26N 47°40' W 122°23'0 0.0
2015-Jun-24 04:23N 47°40' W 122°23'0 0.0
2015-Jun-24 03:28N 47°40' W 122°23'0 0.0
2015-Jun-24 03:27N 47°40' W 122°23'0 0.0
2015-Jun-24 02:32N 47°40' W 122°23'0 0.0
2015-Jun-24 02:32N 47°40' W 122°23'0 0.0
2015-Jun-24 01:33N 47°40' W 122°23'0 0.0
2015-Jun-24 01:32N 47°40' W 122°23'0 0.0
2015-Jun-24 00:33N 47°40' W 122°23'0 0.0
2015-Jun-24 00:31N 47°40' W 122°23'0 0.0
2015-Jun-23 23:33N 47°40' W 122°23'0 0.0
2015-Jun-23 23:30N 47°40' W 122°23'0 0.0
2015-Jun-23 22:33N 47°40' W 122°23'0 0.0
2015-Jun-23 22:30N 47°40' W 122°23'0 0.0
2015-Jun-23 21:33N 47°40' W 122°23'0 0.1
2015-Jun-23 21:30N 47°40' W 122°23'0 0.0
2015-Jun-23 20:33N 47°40' W 122°23'0 0.0
2015-Jun-23 20:30N 47°40' W 122°23'0 0.0
2015-Jun-23 19:33N 47°40' W 122°23'0 0.0
2015-Jun-23 19:30N 47°40' W 122°23'0 0.0
2015-Jun-23 19:06N 47°40' W 122°23'0 0.0
2015-Jun-23 19:05N 47°40' W 122°23'0 0.0
2015-Jun-22 17:33N 47°40' W 122°23'0 0.0
2015-Jun-22 07:32N 47°40' W 122°23'0 0.0
2015-Jun-22 06:29N 47°40' W 122°23'0 0.0
2015-Jun-22 05:34N 47°40' W 122°23'0 0.0
2015-Jun-22 04:04N 47°40' W 122°23'0 0.0
2015-Jun-22 02:19N 47°40' W 122°23'0 0.0
2015-Jun-21 23:08N 47°40' W 122°23'0 0.0
2015-Jun-21 22:30N 47°40' W 122°23'0 0.0
2015-Jun-21 20:13N 47°40' W 122°23'0 0.0
2015-Jun-21 20:09N 47°40' W 122°23'0 0.0
2015-Jun-21 19:33N 47°40' W 122°23'0 0.0
2015-Jun-21 19:29N 47°40' W 122°23'0 0.0
2015-Jun-21 18:34N 47°40' W 122°23'0 0.0
2015-Jun-21 18:33N 47°40' W 122°23'0 0.0
2015-Jun-21 17:33N 47°40' W 122°23'0 0.0
2015-Jun-21 17:32N 47°40' W 122°23'0 0.0
2015-Jun-21 16:33N 47°40' W 122°23'0 0.0
2015-Jun-21 16:32N 47°40' W 122°23'0 0.0
2015-Jun-21 15:34N 47°40' W 122°23'0 0.0
2015-Jun-21 15:32N 47°40' W 122°23'0 0.0
2015-Jun-21 14:33N 47°40' W 122°23'0 0.0
2015-Jun-21 14:30N 47°40' W 122°23'0 0.0
2015-Jun-21 13:33N 47°40' W 122°23'0 0.0
2015-Jun-21 13:30N 47°40' W 122°23'0 0.0
2015-Jun-21 12:33N 47°40' W 122°23'0 0.1
2015-Jun-21 12:30N 47°40' W 122°23'0 0.0
2015-Jun-21 11:25N 47°40' W 122°23'0 0.0
2015-Jun-21 11:23N 47°40' W 122°23'0 0.0
2015-Jun-21 10:34N 47°40' W 122°23'0 0.0
2015-Jun-21 10:31N 47°40' W 122°23'0 0.0
2015-Jun-21 09:31N 47°40' W 122°23'0 0.0
2015-Jun-21 09:30N 47°40' W 122°23'0 0.0
2015-Jun-21 08:34N 47°40' W 122°23'0 0.0
2015-Jun-21 08:30N 47°40' W 122°23'0 0.0
2015-Jun-21 07:34N 47°40' W 122°23'0 0.0
2015-Jun-21 07:13N 47°40' W 122°23'0 0.0
2015-Jun-21 06:34N 47°40' W 122°23'0 0.0
2015-Jun-21 06:33N 47°40' W 122°23'0 0.0
2015-Jun-21 06:02N 47°40' W 122°23'0 0.0
2015-Jun-21 05:34N 47°40' W 122°23'0 0.0
2015-Jun-21 04:31N 47°40' W 122°23'0 0.0
2015-Jun-21 04:01N 47°40' W 122°23'0 0.0
2015-Jun-21 03:27N 47°40' W 122°23'0 0.0
2015-Jun-21 03:15N 47°40' W 122°23'0 0.0
2015-Jun-21 02:34N 47°40' W 122°23'0 0.1
2015-Jun-21 02:29N 47°40' W 122°23'0 0.0
2015-Jun-21 01:31N 47°40' W 122°23'0 0.0
2015-Jun-21 01:27N 47°40' W 122°23'0 0.0
2015-Jun-21 00:34N 47°40' W 122°23'0 0.0
2015-Jun-21 00:32N 47°40' W 122°23'0 0.0
2015-Jun-20 23:33N 47°40' W 122°23'0 0.2
2015-Jun-20 23:31N 47°40' W 122°23'0 0.0
2015-Jun-20 22:34N 47°40' W 122°23'0 0.0
2015-Jun-20 22:30N 47°40' W 122°23'0 0.0
2015-Jun-20 21:30N 47°40' W 122°23'0 0.0
2015-Jun-20 21:24N 47°40' W 122°23'0 0.0
2015-Jun-20 20:32N 47°40' W 122°23'0 0.0
2015-Jun-20 20:08N 47°40' W 122°23'0 0.0
2015-Jun-20 19:32N 47°40' W 122°23'0 0.0
2015-Jun-20 19:28N 47°40' W 122°23'0 0.0
2015-Jun-20 18:33N 47°40' W 122°23'0 0.0
2015-Jun-20 18:32N 47°40' W 122°23'0 0.0
2015-Jun-20 17:33N 47°40' W 122°23'0 0.0
2015-Jun-20 17:32N 47°40' W 122°23'0 0.0
2015-Jun-20 16:34N 47°40' W 122°23'0 0.2
2015-Jun-20 16:31N 47°40' W 122°23'0 0.0
2015-Jun-20 15:34N 47°40' W 122°23'0 0.0
2015-Jun-20 15:31N 47°40' W 122°23'0 0.0
2015-Jun-20 14:34N 47°40' W 122°23'0 0.0
2015-Jun-20 14:34N 47°40' W 122°23'0 0.0
2015-Jun-20 13:34N 47°40' W 122°23'0 0.0
2015-Jun-20 13:29N 47°40' W 122°23'0 0.0
2015-Jun-20 12:33N 47°40' W 122°23'0 0.0
2015-Jun-20 12:33N 47°40' W 122°23'0 0.0
2015-Jun-20 11:33N 47°40' W 122°23'0 0.3
2015-Jun-20 11:32N 47°40' W 122°23'  

Dump ship's entire track history